createdAt,value
2017-12-17T00:00:09.560Z,6.10
2017-12-17T00:01:16.360Z,7.60
2017-12-17T00:02:23.212Z,8.70
2017-12-17T00:03:30.319Z,6.10
2017-12-17T00:04:37.196Z,5.00
2017-12-17T00:05:44.103Z,4.90
2017-12-17T00:06:51.001Z,5.90
2017-12-17T00:07:58.027Z,5.20
2017-12-17T00:09:05.100Z,5.10
2017-12-17T00:10:12.158Z,5.10
2017-12-17T00:11:19.248Z,4.60
2017-12-17T00:12:26.196Z,7.70
2017-12-17T00:13:33.096Z,6.40
2017-12-17T00:14:40.152Z,4.30
2017-12-17T00:15:47.148Z,4.70
2017-12-17T00:16:54.096Z,4.90
2017-12-17T00:18:01.290Z,3.60
2017-12-17T00:19:08.228Z,3.90
2017-12-17T00:20:15.229Z,5.70
2017-12-17T00:21:21.840Z,4.40
2017-12-17T00:22:28.816Z,6.00
2017-12-17T00:23:35.848Z,6.40
2017-12-17T00:24:42.825Z,4.80
2017-12-17T00:25:49.860Z,5.10
2017-12-17T00:26:56.936Z,7.30
2017-12-17T00:28:03.701Z,5.30
2017-12-17T00:29:10.468Z,3.50
2017-12-17T00:30:22.452Z,7.20
2017-12-17T00:31:24.440Z,5.50
2017-12-17T00:32:31.416Z,3.70
2017-12-17T00:33:38.454Z,5.30
2017-12-17T00:34:45.463Z,4.30
2017-12-17T00:35:52.372Z,6.40
2017-12-17T00:36:59.368Z,3.40
2017-12-17T00:38:06.469Z,5.50
2017-12-17T00:39:13.442Z,3.70
2017-12-17T00:40:20.392Z,6.50
2017-12-17T00:41:27.485Z,3.10
2017-12-17T00:42:34.608Z,4.50
2017-12-17T00:43:41.700Z,4.40
2017-12-17T00:44:48.968Z,2.70
2017-12-17T00:45:56.049Z,4.50
2017-12-17T00:47:03.050Z,4.80
2017-12-17T00:48:09.948Z,6.00
2017-12-17T00:49:17.456Z,7.10
2017-12-17T00:50:24.077Z,6.30
2017-12-17T00:51:31.060Z,3.40
2017-12-17T00:52:38.040Z,3.50
2017-12-17T00:53:45.036Z,3.00
2017-12-17T00:54:52.077Z,4.30
2017-12-17T00:55:58.773Z,4.80
2017-12-17T00:57:05.712Z,5.80
2017-12-17T00:58:12.546Z,4.60
2017-12-17T00:59:19.210Z,8.20
2017-12-17T01:00:26.180Z,3.50
2017-12-17T01:01:33.146Z,2.70
2017-12-17T01:02:39.861Z,3.00
2017-12-17T01:03:46.906Z,2.70
2017-12-17T01:04:53.819Z,2.60
2017-12-17T01:06:00.584Z,2.80
2017-12-17T01:07:07.680Z,4.50
2017-12-17T01:08:14.557Z,4.20
2017-12-17T01:09:21.473Z,3.40
2017-12-17T01:10:28.487Z,4.40
2017-12-17T01:11:35.448Z,4.20
2017-12-17T01:12:42.505Z,3.60
2017-12-17T01:13:49.508Z,3.70
2017-12-17T01:14:56.451Z,5.40
2017-12-17T01:16:03.435Z,5.60
2017-12-17T01:17:10.428Z,3.30
2017-12-17T01:18:17.365Z,3.60
2017-12-17T01:19:24.429Z,4.00
2017-12-17T01:20:31.852Z,6.00
2017-12-17T01:21:38.379Z,2.80
2017-12-17T01:22:45.418Z,4.40
2017-12-17T01:23:52.540Z,4.70
2017-12-17T01:24:59.836Z,3.90
2017-12-17T01:26:06.292Z,3.70
2017-12-17T01:27:13.202Z,3.10
2017-12-17T01:28:20.484Z,3.10
2017-12-17T01:29:27.103Z,4.40
2017-12-17T01:30:33.697Z,3.30
2017-12-17T01:31:40.740Z,6.80
2017-12-17T01:32:47.676Z,5.70
2017-12-17T01:33:54.644Z,5.70
2017-12-17T01:35:01.572Z,4.30
2017-12-17T01:36:08.528Z,3.30
2017-12-17T01:37:15.580Z,4.20
2017-12-17T01:38:22.534Z,4.90
2017-12-17T01:39:29.468Z,3.00
2017-12-17T01:40:36.608Z,3.40
2017-12-17T01:41:43.208Z,5.40
2017-12-17T01:42:50.404Z,3.90
2017-12-17T01:43:57.460Z,4.70
2017-12-17T01:45:04.492Z,4.40
2017-12-17T01:46:11.585Z,4.60
2017-12-17T01:47:18.360Z,5.50
2017-12-17T01:48:25.079Z,3.50
2017-12-17T01:49:31.705Z,5.10
2017-12-17T01:50:38.591Z,4.30
2017-12-17T01:51:45.612Z,4.00
2017-12-17T01:52:52.720Z,5.20
2017-12-17T01:53:59.281Z,5.30
2017-12-17T01:55:06.528Z,3.50
2017-12-17T01:56:13.744Z,5.60
2017-12-17T01:57:20.483Z,5.80
2017-12-17T01:58:27.067Z,5.50
2017-12-17T01:59:33.940Z,6.50
2017-12-17T02:00:41.146Z,6.50
2017-12-17T02:01:48.039Z,5.00
2017-12-17T02:02:55.360Z,5.00
2017-12-17T02:04:02.032Z,6.90
2017-12-17T02:05:08.724Z,4.80
2017-12-17T02:06:15.343Z,6.10
2017-12-17T02:07:22.210Z,5.30
2017-12-17T02:08:28.884Z,6.50
2017-12-17T02:09:35.344Z,7.30
2017-12-17T02:10:42.468Z,4.00
2017-12-17T02:11:49.750Z,3.90
2017-12-17T02:12:56.948Z,4.00
2017-12-17T02:14:03.491Z,4.50
2017-12-17T02:15:10.448Z,4.40
2017-12-17T02:16:17.452Z,4.10
2017-12-17T02:17:24.342Z,4.00
2017-12-17T02:18:31.133Z,5.50
2017-12-17T02:19:38.316Z,4.60
2017-12-17T02:20:44.988Z,3.90
2017-12-17T02:21:52.126Z,7.00
2017-12-17T02:22:58.844Z,4.80
2017-12-17T02:24:05.981Z,4.60
2017-12-17T02:25:13.075Z,5.60
2017-12-17T02:26:20.324Z,6.30
2017-12-17T02:27:26.913Z,4.80
2017-12-17T02:28:33.920Z,4.50
2017-12-17T02:29:40.632Z,5.70
2017-12-17T02:30:47.404Z,9.90
2017-12-17T02:31:54.173Z,4.70
2017-12-17T02:33:01.160Z,4.50
2017-12-17T02:34:08.224Z,4.00
2017-12-17T02:35:15.337Z,4.60
2017-12-17T02:36:22.492Z,4.60
2017-12-17T02:37:29.165Z,4.70
2017-12-17T02:38:36.316Z,6.10
2017-12-17T02:39:43.636Z,5.40
2017-12-17T02:40:50.136Z,4.30
2017-12-17T02:41:57.247Z,4.00
2017-12-17T02:43:04.404Z,4.30
2017-12-17T02:44:11.160Z,5.10
2017-12-17T02:45:18.157Z,4.50
2017-12-17T02:46:25.195Z,7.70
2017-12-17T02:47:32.360Z,4.30
2017-12-17T02:48:39.516Z,6.10
2017-12-17T02:49:46.293Z,4.90
2017-12-17T02:50:53.287Z,4.50
2017-12-17T02:52:00.168Z,7.50
2017-12-17T02:53:06.877Z,6.60
2017-12-17T02:54:13.807Z,5.10
2017-12-17T02:55:20.489Z,4.70
2017-12-17T02:56:27.708Z,5.10
2017-12-17T02:57:34.222Z,5.00
2017-12-17T02:58:40.881Z,5.40
2017-12-17T02:59:47.616Z,6.90
2017-12-17T03:00:54.308Z,5.00
2017-12-17T03:02:01.248Z,5.10
2017-12-17T03:03:07.973Z,4.80
2017-12-17T03:04:14.940Z,8.30
2017-12-17T03:05:22.260Z,5.30
2017-12-17T03:06:29.357Z,4.80
2017-12-17T03:07:36.032Z,5.10
2017-12-17T03:08:43.060Z,6.50
2017-12-17T03:09:50.128Z,5.40
2017-12-17T03:10:57.209Z,7.10
2017-12-17T03:12:04.232Z,5.30
2017-12-17T03:13:11.004Z,5.50
2017-12-17T03:14:17.615Z,8.90
2017-12-17T03:15:24.664Z,7.40
2017-12-17T03:16:31.633Z,5.90
2017-12-17T03:17:38.287Z,6.60
2017-12-17T03:18:45.302Z,5.50
2017-12-17T03:19:52.444Z,5.90
2017-12-17T03:20:59.172Z,10.10
2017-12-17T03:22:05.993Z,7.40
2017-12-17T03:23:12.612Z,6.60
2017-12-17T03:24:19.230Z,8.70
2017-12-17T03:25:26.112Z,5.60
2017-12-17T03:26:32.836Z,6.70
2017-12-17T03:27:39.640Z,8.50
2017-12-17T03:28:46.772Z,7.10
2017-12-17T03:29:53.836Z,6.20
2017-12-17T03:31:00.911Z,7.40
2017-12-17T03:32:08.268Z,5.80
2017-12-17T03:33:15.016Z,6.80
2017-12-17T03:34:22.120Z,8.20
2017-12-17T03:35:29.128Z,6.80
2017-12-17T03:36:36.444Z,6.30
2017-12-17T03:37:43.452Z,6.10
2017-12-17T03:38:50.109Z,10.50
2017-12-17T03:39:57.260Z,5.20
2017-12-17T03:41:04.405Z,5.30
2017-12-17T03:42:11.316Z,6.60
2017-12-17T03:43:18.017Z,10.90
2017-12-17T03:44:24.817Z,7.80
2017-12-17T03:45:31.936Z,9.50
2017-12-17T03:46:39.056Z,7.20
2017-12-17T03:47:46.216Z,11.00
2017-12-17T03:48:53.072Z,5.80
2017-12-17T03:49:59.814Z,7.80
2017-12-17T03:51:07.104Z,8.80
2017-12-17T03:52:13.976Z,9.00
2017-12-17T03:53:20.852Z,7.40
2017-12-17T03:54:27.496Z,9.10
2017-12-17T03:55:34.832Z,5.80
2017-12-17T03:56:41.664Z,8.30
2017-12-17T03:57:48.296Z,8.80
2017-12-17T03:58:55.084Z,6.90
2017-12-17T04:00:01.856Z,8.10
2017-12-17T04:01:08.601Z,9.50
2017-12-17T04:02:15.423Z,9.90
2017-12-17T04:03:22.548Z,7.90
2017-12-17T04:04:29.339Z,8.00
2017-12-17T04:05:36.347Z,7.60
2017-12-17T04:06:43.132Z,10.60
2017-12-17T04:07:49.888Z,6.70
2017-12-17T04:08:57.025Z,7.30
2017-12-17T04:10:03.941Z,9.10
2017-12-17T04:11:10.714Z,8.50
2017-12-17T04:12:17.786Z,9.80
2017-12-17T04:13:25.044Z,7.40
2017-12-17T04:14:31.525Z,7.20
2017-12-17T04:15:38.224Z,11.20
2017-12-17T04:16:45.352Z,9.20
2017-12-17T04:17:52.545Z,8.10
2017-12-17T04:18:59.408Z,6.70
2017-12-17T04:20:06.476Z,8.80
2017-12-17T04:21:13.580Z,9.50
2017-12-17T04:22:20.516Z,7.10
2017-12-17T04:23:27.596Z,7.80
2017-12-17T04:24:34.192Z,8.30
2017-12-17T04:25:41.220Z,7.10
2017-12-17T04:26:48.146Z,9.90
2017-12-17T04:27:55.459Z,8.50
2017-12-17T04:29:01.893Z,9.60
2017-12-17T04:30:09.022Z,7.50
2017-12-17T04:31:15.800Z,9.20
2017-12-17T04:32:22.760Z,10.90
2017-12-17T04:33:30.016Z,11.20
2017-12-17T04:34:37.197Z,9.20
2017-12-17T04:35:43.757Z,9.30
2017-12-17T04:36:50.440Z,9.40
2017-12-17T04:37:57.558Z,11.80
2017-12-17T04:39:04.756Z,10.00
2017-12-17T04:40:11.924Z,10.30
2017-12-17T04:41:18.933Z,9.70
2017-12-17T04:42:26.024Z,9.60
2017-12-17T04:43:32.967Z,11.60
2017-12-17T04:44:39.940Z,9.50
2017-12-17T04:45:46.541Z,8.30
2017-12-17T04:46:53.152Z,8.30
2017-12-17T04:48:00.332Z,8.90
2017-12-17T04:49:07.559Z,8.00
2017-12-17T04:50:14.652Z,9.40
2017-12-17T04:51:21.772Z,10.80
2017-12-17T04:52:28.706Z,11.60
2017-12-17T04:53:35.696Z,9.70
2017-12-17T04:54:42.844Z,8.80
2017-12-17T04:55:49.961Z,13.20
2017-12-17T04:56:56.708Z,9.90
2017-12-17T04:58:03.520Z,11.70
2017-12-17T04:59:10.551Z,14.00
2017-12-17T05:00:17.549Z,13.10
2017-12-17T05:01:24.278Z,12.70
2017-12-17T05:02:31.420Z,12.10
2017-12-17T05:03:38.501Z,11.60
2017-12-17T05:04:45.408Z,13.00
2017-12-17T05:05:52.733Z,12.20
2017-12-17T05:06:59.395Z,10.50
2017-12-17T05:08:06.373Z,10.80
2017-12-17T05:09:13.443Z,14.50
2017-12-17T05:10:20.615Z,11.00
2017-12-17T05:11:27.593Z,12.30
2017-12-17T05:12:34.508Z,10.80
2017-12-17T05:13:41.576Z,12.90
2017-12-17T05:14:48.821Z,11.20
2017-12-17T05:15:56.092Z,10.90
2017-12-17T05:17:03.071Z,10.30
2017-12-17T05:18:10.116Z,10.70
2017-12-17T05:19:16.652Z,11.90
2017-12-17T05:20:23.860Z,10.00
2017-12-17T05:21:31.047Z,12.50
2017-12-17T05:22:37.524Z,9.20
2017-12-17T05:23:44.448Z,10.80
2017-12-17T05:24:51.673Z,11.50
2017-12-17T05:25:58.605Z,13.40
2017-12-17T05:27:05.708Z,11.70
2017-12-17T05:28:12.561Z,13.20
2017-12-17T05:29:19.152Z,15.40
2017-12-17T05:30:26.371Z,14.00
2017-12-17T05:31:33.480Z,11.90
2017-12-17T05:32:40.523Z,12.70
2017-12-17T05:33:47.739Z,14.40
2017-12-17T05:34:54.256Z,12.30
2017-12-17T05:36:01.285Z,12.90
2017-12-17T05:37:08.360Z,15.80
2017-12-17T05:38:15.016Z,12.80
2017-12-17T05:39:22.042Z,14.90
2017-12-17T05:40:28.948Z,17.40
2017-12-17T05:41:36.219Z,12.60
2017-12-17T05:42:43.297Z,13.60
2017-12-17T05:43:50.458Z,12.70
2017-12-17T05:44:57.453Z,13.90
2017-12-17T05:46:04.176Z,11.40
2017-12-17T05:47:11.235Z,12.30
2017-12-17T05:48:18.220Z,11.40
2017-12-17T05:49:24.895Z,11.90
2017-12-17T05:50:31.996Z,10.80
2017-12-17T05:51:39.332Z,12.80
2017-12-17T05:52:46.317Z,10.90
2017-12-17T05:53:53.320Z,12.40
2017-12-17T05:55:00.140Z,12.70
2017-12-17T05:56:07.131Z,9.80
2017-12-17T05:57:14.120Z,16.10
2017-12-17T05:58:21.006Z,11.30
2017-12-17T05:59:28.221Z,11.50
2017-12-17T06:00:34.796Z,11.20
2017-12-17T06:01:41.948Z,13.50
2017-12-17T06:02:49.213Z,9.70
2017-12-17T06:03:55.780Z,13.10
2017-12-17T06:05:02.980Z,13.00
2017-12-17T06:06:10.501Z,11.40
2017-12-17T06:07:16.512Z,11.70
2017-12-17T06:08:23.716Z,10.70
2017-12-17T06:09:30.898Z,13.60
2017-12-17T06:10:37.532Z,9.90
2017-12-17T06:11:44.156Z,12.00
2017-12-17T06:12:51.093Z,10.40
2017-12-17T06:13:58.161Z,10.60
2017-12-17T06:15:04.879Z,12.20
2017-12-17T06:16:11.516Z,13.70
2017-12-17T06:17:18.620Z,12.60
2017-12-17T06:18:25.895Z,12.70
2017-12-17T06:19:32.452Z,14.00
2017-12-17T06:20:39.397Z,15.20
2017-12-17T06:21:46.412Z,10.70
2017-12-17T06:22:53.695Z,14.00
2017-12-17T06:24:00.420Z,10.50
2017-12-17T06:25:07.440Z,10.60
2017-12-17T06:26:14.455Z,11.70
2017-12-17T06:27:21.581Z,10.70
2017-12-17T06:28:28.605Z,11.30
2017-12-17T06:29:35.820Z,12.70
2017-12-17T06:30:42.653Z,12.90
2017-12-17T06:31:49.640Z,15.50
2017-12-17T06:32:56.420Z,11.50
2017-12-17T06:34:03.556Z,16.30
2017-12-17T06:35:10.837Z,11.20
2017-12-17T06:36:17.492Z,15.10
2017-12-17T06:37:24.393Z,12.70
2017-12-17T06:38:31.567Z,13.60
2017-12-17T06:39:38.561Z,14.10
2017-12-17T06:40:45.611Z,13.10
2017-12-17T06:41:52.638Z,13.10
2017-12-17T06:42:59.893Z,13.90
2017-12-17T06:44:07.046Z,11.10
2017-12-17T06:45:13.976Z,12.20
2017-12-17T06:46:21.024Z,13.80
2017-12-17T06:47:27.976Z,12.50
2017-12-17T06:48:35.053Z,13.10
2017-12-17T06:49:42.116Z,14.50
2017-12-17T06:50:49.336Z,12.40
2017-12-17T06:51:56.363Z,15.40
2017-12-17T06:53:03.362Z,11.10
2017-12-17T06:54:10.195Z,12.10
2017-12-17T06:55:16.696Z,14.00
2017-12-17T06:56:23.889Z,17.50
2017-12-17T06:57:30.588Z,13.20
2017-12-17T06:58:37.484Z,13.10
2017-12-17T06:59:44.120Z,13.50
2017-12-17T07:00:51.156Z,11.40
2017-12-17T07:01:57.963Z,13.40
2017-12-17T07:03:04.933Z,12.60
2017-12-17T07:04:11.888Z,11.80
2017-12-17T07:05:19.198Z,12.10
2017-12-17T07:06:25.892Z,11.50
2017-12-17T07:07:32.604Z,13.60
2017-12-17T07:08:39.564Z,18.20
2017-12-17T07:09:46.748Z,12.30
2017-12-17T07:10:53.667Z,12.60
2017-12-17T07:12:00.600Z,13.20
2017-12-17T07:13:08.033Z,11.70
2017-12-17T07:14:14.775Z,15.60
2017-12-17T07:15:21.764Z,12.60
2017-12-17T07:16:28.952Z,12.10
2017-12-17T07:17:35.355Z,11.00
2017-12-17T07:18:42.472Z,13.50
2017-12-17T07:19:49.360Z,10.80
2017-12-17T07:20:56.317Z,13.10
2017-12-17T07:22:03.289Z,13.30
2017-12-17T07:23:10.248Z,14.90
2017-12-17T07:24:17.411Z,12.00
2017-12-17T07:25:24.086Z,17.70
2017-12-17T07:26:31.053Z,13.50
2017-12-17T07:27:38.093Z,15.10
2017-12-17T07:28:45.224Z,13.30
2017-12-17T07:29:52.319Z,14.50
2017-12-17T07:30:59.456Z,14.40
2017-12-17T07:32:06.023Z,15.00
2017-12-17T07:33:13.176Z,14.30
2017-12-17T07:34:19.984Z,15.50
2017-12-17T07:35:26.792Z,17.40
2017-12-17T07:36:33.824Z,17.60
2017-12-17T07:37:40.785Z,15.40
2017-12-17T07:38:47.925Z,16.80
2017-12-17T07:39:54.775Z,11.50
2017-12-17T07:41:01.865Z,15.10
2017-12-17T07:42:08.918Z,15.10
2017-12-17T07:43:16.004Z,14.10
2017-12-17T07:44:23.187Z,13.60
2017-12-17T07:45:29.992Z,14.00
2017-12-17T07:46:36.985Z,13.30
2017-12-17T07:47:43.596Z,14.40
2017-12-17T07:48:50.458Z,12.50
2017-12-17T07:49:57.421Z,13.00
2017-12-17T07:51:04.644Z,16.90
2017-12-17T07:52:11.849Z,16.00
2017-12-17T07:53:18.480Z,13.10
2017-12-17T07:54:25.612Z,14.60
2017-12-17T07:55:32.760Z,15.00
2017-12-17T07:56:39.569Z,14.50
2017-12-17T07:57:46.472Z,15.30
2017-12-17T07:58:53.775Z,15.30
2017-12-17T08:00:00.700Z,16.80
2017-12-17T08:01:08.046Z,18.30
2017-12-17T08:02:14.812Z,14.60
2017-12-17T08:03:21.463Z,15.10
2017-12-17T08:04:28.383Z,15.30
2017-12-17T08:05:35.509Z,15.20
2017-12-17T08:06:42.316Z,16.00
2017-12-17T08:07:49.069Z,13.00
2017-12-17T08:08:55.715Z,12.90
2017-12-17T08:10:02.585Z,16.10
2017-12-17T08:11:09.344Z,15.10
2017-12-17T08:12:16.348Z,16.20
2017-12-17T08:13:23.700Z,17.10
2017-12-17T08:14:30.160Z,12.10
2017-12-17T08:15:37.248Z,17.20
2017-12-17T08:16:44.244Z,17.50
2017-12-17T08:17:51.208Z,15.40
2017-12-17T08:18:58.332Z,15.30
2017-12-17T08:20:05.342Z,13.60
2017-12-17T08:21:12.456Z,14.20
2017-12-17T08:22:19.243Z,17.10
2017-12-17T08:23:26.310Z,18.10
2017-12-17T08:24:33.397Z,15.60
2017-12-17T08:25:40.424Z,12.10
2017-12-17T08:26:47.532Z,12.10
2017-12-17T08:27:54.505Z,14.20
2017-12-17T08:29:01.619Z,11.80
2017-12-17T08:30:08.660Z,13.40
2017-12-17T08:31:15.772Z,13.10
2017-12-17T08:32:23.168Z,13.90
2017-12-17T08:33:29.780Z,16.80
2017-12-17T08:34:36.916Z,15.10
2017-12-17T08:35:43.908Z,16.60
2017-12-17T08:36:51.044Z,11.90
2017-12-17T08:37:57.724Z,17.10
2017-12-17T08:39:04.492Z,13.40
2017-12-17T08:40:11.581Z,16.90
2017-12-17T08:41:18.656Z,16.80
2017-12-17T08:42:25.308Z,18.00
2017-12-17T08:43:32.360Z,14.90
2017-12-17T08:44:39.272Z,16.30
2017-12-17T08:45:46.164Z,16.30
2017-12-17T08:46:53.148Z,16.70
2017-12-17T08:48:00.340Z,15.10
2017-12-17T08:49:07.320Z,15.50
2017-12-17T08:50:14.349Z,13.50
2017-12-17T08:51:21.510Z,15.00
2017-12-17T08:52:28.247Z,15.70
2017-12-17T08:53:35.272Z,16.80
2017-12-17T08:54:42.193Z,16.30
2017-12-17T08:55:49.149Z,13.60
2017-12-17T08:56:56.372Z,16.70
2017-12-17T08:58:03.168Z,16.30
2017-12-17T08:59:09.868Z,14.30
2017-12-17T09:00:16.468Z,15.20
2017-12-17T09:01:23.416Z,13.30
2017-12-17T09:02:30.143Z,15.80
2017-12-17T09:03:37.272Z,15.10
2017-12-17T09:04:44.391Z,15.20
2017-12-17T09:05:51.528Z,16.20
2017-12-17T09:06:58.120Z,15.70
2017-12-17T09:08:05.134Z,16.10
2017-12-17T09:09:11.959Z,15.70
2017-12-17T09:10:19.092Z,13.70
2017-12-17T09:11:26.045Z,16.90
2017-12-17T09:12:33.093Z,15.90
2017-12-17T09:13:39.692Z,16.10
2017-12-17T09:14:46.731Z,15.50
2017-12-17T09:15:53.945Z,15.80
2017-12-17T09:17:00.861Z,18.40
2017-12-17T09:18:07.809Z,15.60
2017-12-17T09:19:14.920Z,15.30
2017-12-17T09:20:22.236Z,14.30
2017-12-17T09:21:28.740Z,16.50
2017-12-17T09:22:35.720Z,15.80
2017-12-17T09:23:42.720Z,16.30
2017-12-17T09:24:49.566Z,15.10
2017-12-17T09:25:56.728Z,13.30
2017-12-17T09:27:03.636Z,15.10
2017-12-17T09:28:10.885Z,17.00
2017-12-17T09:29:17.360Z,15.90
2017-12-17T09:30:24.258Z,14.90
2017-12-17T09:31:31.697Z,15.70
2017-12-17T09:32:38.434Z,17.80
2017-12-17T09:33:45.000Z,14.40
2017-12-17T09:34:51.924Z,14.40
2017-12-17T09:35:58.877Z,16.20
2017-12-17T09:37:05.968Z,15.00
2017-12-17T09:38:12.884Z,14.30
2017-12-17T09:39:20.132Z,13.60
2017-12-17T09:40:26.840Z,15.00
2017-12-17T09:41:33.989Z,16.50
2017-12-17T09:42:40.977Z,16.60
2017-12-17T09:43:47.790Z,14.70
2017-12-17T09:44:55.073Z,14.30
2017-12-17T09:46:01.789Z,16.00
2017-12-17T09:47:08.278Z,15.80
2017-12-17T09:48:15.332Z,15.30
2017-12-17T09:49:22.499Z,13.70
2017-12-17T09:50:29.474Z,16.10
2017-12-17T09:51:36.537Z,15.70
2017-12-17T09:52:43.767Z,16.10
2017-12-17T09:53:50.365Z,14.30
2017-12-17T09:54:57.356Z,15.50
2017-12-17T09:56:04.436Z,15.40
2017-12-17T09:57:11.608Z,17.70
2017-12-17T09:58:18.720Z,17.90
2017-12-17T09:59:25.844Z,15.70
2017-12-17T10:00:32.841Z,13.90
2017-12-17T10:01:39.962Z,14.40
2017-12-17T10:02:46.486Z,17.50
2017-12-17T10:03:53.201Z,13.70
2017-12-17T10:05:00.216Z,18.30
2017-12-17T10:06:06.884Z,18.60
2017-12-17T10:07:14.035Z,15.50
2017-12-17T10:08:20.964Z,16.50
2017-12-17T10:09:27.968Z,16.20
2017-12-17T10:10:34.939Z,14.70
2017-12-17T10:11:42.072Z,12.30
2017-12-17T10:12:48.744Z,14.70
2017-12-17T10:13:55.812Z,14.60
2017-12-17T10:15:02.816Z,15.70
2017-12-17T10:16:09.821Z,14.90
2017-12-17T10:17:16.875Z,12.70
2017-12-17T10:18:23.756Z,15.40
2017-12-17T10:19:30.687Z,14.50
2017-12-17T10:20:37.711Z,14.40
2017-12-17T10:21:44.800Z,14.00
2017-12-17T10:22:51.999Z,17.30
2017-12-17T10:23:58.456Z,13.80
2017-12-17T10:25:05.373Z,13.20
2017-12-17T10:26:12.605Z,16.50
2017-12-17T10:27:19.752Z,18.30
2017-12-17T10:28:26.928Z,15.30
2017-12-17T10:29:34.124Z,16.10
2017-12-17T10:30:41.092Z,15.10
2017-12-17T10:31:48.085Z,16.20
2017-12-17T10:32:55.084Z,15.20
2017-12-17T10:34:01.804Z,16.80
2017-12-17T10:35:08.769Z,16.00
2017-12-17T10:36:15.973Z,14.90
2017-12-17T10:37:22.892Z,13.70
2017-12-17T10:38:30.120Z,16.30
2017-12-17T10:39:36.656Z,17.50
2017-12-17T10:40:43.334Z,15.50
2017-12-17T10:41:50.371Z,14.80
2017-12-17T10:42:57.344Z,14.40
2017-12-17T10:44:04.496Z,18.20
2017-12-17T10:45:11.584Z,13.30
2017-12-17T10:46:18.280Z,14.40
2017-12-17T10:47:25.321Z,17.60
2017-12-17T10:48:32.403Z,12.80
2017-12-17T10:49:39.488Z,14.50
2017-12-17T10:50:46.572Z,16.20
2017-12-17T10:51:53.536Z,13.70
2017-12-17T10:53:00.572Z,15.80
2017-12-17T10:54:07.863Z,14.80
2017-12-17T10:55:14.894Z,16.50
2017-12-17T10:56:21.908Z,13.70
2017-12-17T10:57:28.829Z,16.40
2017-12-17T10:58:35.476Z,12.90
2017-12-17T10:59:42.704Z,15.00
2017-12-17T11:00:49.725Z,17.20
2017-12-17T11:01:56.777Z,13.70
2017-12-17T11:03:03.804Z,13.40
2017-12-17T11:04:10.625Z,13.10
2017-12-17T11:05:17.769Z,13.30
2017-12-17T11:06:24.924Z,15.00
2017-12-17T11:07:31.884Z,11.30
2017-12-17T11:08:39.009Z,16.20
2017-12-17T11:09:46.012Z,12.60
2017-12-17T11:10:52.912Z,14.80
2017-12-17T11:11:59.364Z,13.10
2017-12-17T11:13:06.377Z,17.80
2017-12-17T11:14:13.212Z,18.00
2017-12-17T11:15:20.294Z,16.10
2017-12-17T11:16:27.260Z,19.00
2017-12-17T11:17:34.363Z,15.60
2017-12-17T11:18:41.333Z,18.70
2017-12-17T11:19:48.080Z,14.60
2017-12-17T11:20:54.832Z,16.10
2017-12-17T11:22:01.525Z,15.20
2017-12-17T11:23:08.615Z,14.00
2017-12-17T11:24:15.795Z,13.40
2017-12-17T11:25:22.760Z,15.20
2017-12-17T11:26:29.830Z,12.30
2017-12-17T11:27:36.785Z,15.20
2017-12-17T11:28:43.962Z,15.40
2017-12-17T11:29:50.993Z,12.30
2017-12-17T11:30:58.252Z,16.00
2017-12-17T11:32:04.788Z,15.20
2017-12-17T11:33:11.944Z,13.90
2017-12-17T11:34:19.016Z,18.50
2017-12-17T11:35:26.144Z,14.60
2017-12-17T11:36:32.848Z,17.60
2017-12-17T11:37:39.488Z,14.60
2017-12-17T11:38:46.644Z,16.00
2017-12-17T11:39:53.620Z,11.60
2017-12-17T11:41:00.521Z,12.20
2017-12-17T11:42:07.560Z,15.10
2017-12-17T11:43:14.460Z,14.00
2017-12-17T11:44:21.256Z,12.70
2017-12-17T11:45:28.312Z,12.20
2017-12-17T11:46:35.268Z,14.30
2017-12-17T11:47:42.071Z,12.80
2017-12-17T11:48:49.118Z,12.90
2017-12-17T11:49:56.084Z,14.50
2017-12-17T11:51:03.167Z,15.60
2017-12-17T11:52:10.060Z,15.60
2017-12-17T11:53:16.859Z,15.30
2017-12-17T11:54:23.844Z,15.00
2017-12-17T11:55:31.069Z,16.00
2017-12-17T11:56:37.778Z,16.30
2017-12-17T11:57:44.904Z,13.10
2017-12-17T11:58:51.988Z,14.30
2017-12-17T11:59:58.924Z,16.30
2017-12-17T12:01:06.166Z,15.40
2017-12-17T12:02:13.203Z,16.70
2017-12-17T12:03:20.357Z,15.00
2017-12-17T12:04:27.064Z,17.10
2017-12-17T12:05:34.239Z,19.10
2017-12-17T12:06:41.308Z,19.60
2017-12-17T12:07:48.456Z,15.80
2017-12-17T12:08:55.113Z,18.60
2017-12-17T12:10:02.153Z,20.10
2017-12-17T12:11:09.184Z,20.30
2017-12-17T12:12:16.260Z,21.60
2017-12-17T12:13:23.432Z,20.70
2017-12-17T12:14:30.412Z,17.90
2017-12-17T12:15:37.083Z,17.80
2017-12-17T12:16:44.175Z,18.00
2017-12-17T12:17:51.464Z,21.10
2017-12-17T12:18:58.297Z,20.10
2017-12-17T12:20:05.230Z,17.80
2017-12-17T12:21:12.442Z,18.20
2017-12-17T12:22:19.457Z,19.20
2017-12-17T12:23:26.650Z,18.70
2017-12-17T12:24:33.477Z,16.70
2017-12-17T12:25:39.852Z,21.50
2017-12-17T12:26:46.960Z,17.50
2017-12-17T12:27:54.056Z,19.70
2017-12-17T12:29:01.219Z,20.40
2017-12-17T12:30:08.480Z,18.00
2017-12-17T12:31:15.044Z,20.30
2017-12-17T12:32:21.812Z,20.90
2017-12-17T12:33:28.957Z,21.10
2017-12-17T12:34:35.877Z,21.30
2017-12-17T12:35:42.597Z,17.80
2017-12-17T12:36:49.695Z,21.80
2017-12-17T12:37:56.516Z,20.60
2017-12-17T12:39:03.587Z,21.10
2017-12-17T12:40:10.609Z,18.00
2017-12-17T12:41:17.872Z,22.60
2017-12-17T12:42:25.004Z,21.80
2017-12-17T12:43:32.057Z,22.10
2017-12-17T12:44:39.211Z,18.60
2017-12-17T12:45:45.768Z,20.40
2017-12-17T12:46:52.773Z,19.80
2017-12-17T12:47:59.795Z,19.70
2017-12-17T12:49:06.880Z,20.10
2017-12-17T12:50:13.892Z,22.00
2017-12-17T12:51:20.551Z,19.70
2017-12-17T12:52:27.720Z,22.20
2017-12-17T12:53:34.576Z,21.70
2017-12-17T12:54:41.762Z,20.50
2017-12-17T12:55:48.861Z,21.40
2017-12-17T12:56:55.945Z,20.70
2017-12-17T12:58:02.903Z,22.20
2017-12-17T12:59:09.656Z,21.60
2017-12-17T13:00:16.703Z,24.10
2017-12-17T13:01:23.877Z,23.20
2017-12-17T13:02:31.168Z,23.00
2017-12-17T13:03:37.943Z,20.80
2017-12-17T13:04:44.988Z,20.90
2017-12-17T13:05:52.027Z,25.70
2017-12-17T13:06:58.688Z,23.20
2017-12-17T13:08:05.717Z,20.20
2017-12-17T13:09:12.624Z,25.20
2017-12-17T13:10:19.612Z,26.10
2017-12-17T13:11:26.497Z,21.50
2017-12-17T13:12:33.070Z,23.60
2017-12-17T13:13:40.198Z,21.30
2017-12-17T13:14:46.853Z,23.80
2017-12-17T13:15:54.088Z,25.90
2017-12-17T13:17:01.052Z,20.70
2017-12-17T13:18:08.211Z,24.80
2017-12-17T13:19:15.241Z,21.60
2017-12-17T13:20:22.297Z,20.90
2017-12-17T13:21:29.387Z,19.90
2017-12-17T13:22:36.597Z,24.50
2017-12-17T13:23:43.626Z,20.80
2017-12-17T13:24:50.962Z,25.50
2017-12-17T13:25:57.960Z,21.30
2017-12-17T13:27:05.126Z,22.60
2017-12-17T13:28:11.787Z,20.70
2017-12-17T13:29:18.519Z,22.80
2017-12-17T13:30:25.555Z,23.60
2017-12-17T13:31:32.891Z,20.70
2017-12-17T13:32:39.317Z,21.80
2017-12-17T13:33:46.500Z,21.00
2017-12-17T13:34:53.388Z,25.50
2017-12-17T13:36:00.453Z,22.20
2017-12-17T13:37:07.527Z,21.00
2017-12-17T13:38:14.219Z,20.90
2017-12-17T13:39:21.335Z,22.40
2017-12-17T13:40:28.363Z,21.10
2017-12-17T13:41:35.386Z,21.70
2017-12-17T13:42:42.516Z,21.00
2017-12-17T13:43:49.523Z,19.70
2017-12-17T13:44:56.561Z,21.60
2017-12-17T13:46:03.555Z,22.60
2017-12-17T13:47:10.600Z,19.60
2017-12-17T13:48:17.771Z,19.80
2017-12-17T13:49:25.033Z,20.00
2017-12-17T13:50:32.176Z,18.30
2017-12-17T13:51:39.276Z,19.30
2017-12-17T13:52:46.449Z,16.80
2017-12-17T13:53:53.060Z,19.30
2017-12-17T13:55:00.267Z,20.30
2017-12-17T13:56:07.032Z,21.60
2017-12-17T13:57:13.981Z,18.10
2017-12-17T13:58:21.039Z,19.30
2017-12-17T13:59:27.952Z,19.30
2017-12-17T14:00:34.778Z,17.80
2017-12-17T14:01:41.889Z,19.50
2017-12-17T14:02:48.752Z,19.10
2017-12-17T14:03:55.611Z,15.90
2017-12-17T14:05:02.230Z,18.70
2017-12-17T14:06:09.025Z,18.90
2017-12-17T14:07:16.072Z,16.80
2017-12-17T14:08:23.221Z,16.60
2017-12-17T14:09:29.957Z,20.10
2017-12-17T14:10:36.952Z,16.10
2017-12-17T14:11:44.142Z,16.10
2017-12-17T14:12:51.089Z,17.10
2017-12-17T14:13:58.235Z,15.20
2017-12-17T14:15:05.359Z,16.50
2017-12-17T14:16:12.253Z,15.20
2017-12-17T14:17:18.872Z,16.90
2017-12-17T14:18:26.135Z,16.00
2017-12-17T14:19:32.850Z,19.70
2017-12-17T14:20:40.064Z,14.30
2017-12-17T14:21:46.565Z,16.60
2017-12-17T14:22:53.205Z,13.80
2017-12-17T14:24:00.192Z,16.90
2017-12-17T14:25:06.952Z,15.60
2017-12-17T14:26:13.892Z,14.30
2017-12-17T14:27:20.969Z,15.50
2017-12-17T14:28:28.108Z,19.90
2017-12-17T14:29:35.157Z,33.20
2017-12-17T14:30:42.211Z,15.40